createdAt,value
2018-12-15T00:02:20.510Z,97975.00
2018-12-15T00:04:49.798Z,97974.00
2018-12-15T00:07:19.124Z,97977.00
2018-12-15T00:09:48.451Z,97969.00
2018-12-15T00:12:17.716Z,97987.00
2018-12-15T00:14:46.994Z,97977.00
2018-12-15T00:17:16.216Z,97970.00
2018-12-15T00:19:45.534Z,97982.00
2018-12-15T00:22:14.712Z,97984.00
2018-12-15T00:24:43.888Z,97975.00
2018-12-15T00:27:13.218Z,97982.00
2018-12-15T00:29:42.434Z,97982.00
2018-12-15T00:32:11.602Z,97975.00
2018-12-15T00:34:40.844Z,97979.00
2018-12-15T00:37:10.150Z,97981.00
2018-12-15T00:39:39.411Z,97968.00
2018-12-15T00:42:08.698Z,97976.00
2018-12-15T00:44:38.098Z,97972.00
2018-12-15T00:47:13.563Z,97973.00
2018-12-15T00:49:38.559Z,97982.00
2018-12-15T00:52:07.710Z,97978.00
2018-12-15T00:54:36.887Z,97975.00
2018-12-15T00:57:06.054Z,97981.00
2018-12-15T00:59:35.242Z,97986.00
2018-12-15T01:02:04.603Z,97981.00
2018-12-15T01:04:33.830Z,97982.00
2018-12-15T01:07:03.131Z,97986.00
2018-12-15T01:09:32.347Z,97999.00
2018-12-15T01:12:01.522Z,97995.00
2018-12-15T01:14:30.790Z,97995.00
2018-12-15T01:17:00.008Z,97994.00
2018-12-15T01:19:29.218Z,97992.00
2018-12-15T01:21:58.375Z,98001.00
2018-12-15T01:24:27.560Z,97995.00
2018-12-15T01:26:56.716Z,97996.00
2018-12-15T01:29:25.934Z,98000.00
2018-12-15T01:31:55.092Z,97991.00
2018-12-15T01:34:24.289Z,97999.00
2018-12-15T01:36:53.549Z,97994.00
2018-12-15T01:39:22.790Z,97998.00
2018-12-15T01:41:51.974Z,97998.00
2018-12-15T01:44:21.157Z,97999.00
2018-12-15T01:46:50.399Z,97993.00
2018-12-15T01:49:19.583Z,97996.00
2018-12-15T01:51:48.789Z,98008.00
2018-12-15T01:54:17.950Z,98005.00
2018-12-15T01:56:47.195Z,98003.00
2018-12-15T01:59:16.375Z,98013.00
2018-12-15T02:01:45.558Z,98006.00
2018-12-15T02:04:14.867Z,98004.00
2018-12-15T02:06:44.190Z,98007.00
2018-12-15T02:09:13.441Z,98006.00
2018-12-15T02:11:42.687Z,97994.00
2018-12-15T02:14:11.860Z,98001.00
2018-12-15T02:16:41.082Z,98012.00
2018-12-15T02:19:10.382Z,98003.00
2018-12-15T02:21:39.810Z,98007.00
2018-12-15T02:24:09.078Z,98006.00
2018-12-15T02:26:38.406Z,98007.00
2018-12-15T02:29:07.581Z,98007.00
2018-12-15T02:31:36.762Z,98011.00
2018-12-15T02:34:05.955Z,98010.00
2018-12-15T02:36:35.175Z,98031.00
2018-12-15T02:39:07.119Z,98010.00
2018-12-15T02:41:36.342Z,98022.00
2018-12-15T02:44:05.678Z,98022.00
2018-12-15T02:46:34.868Z,98010.00
2018-12-15T02:49:04.223Z,98004.00
2018-12-15T02:51:33.461Z,98004.00
2018-12-15T02:54:02.726Z,98018.00
2018-12-15T02:56:31.934Z,98004.00
2018-12-15T02:59:01.110Z,98009.00
2018-12-15T03:01:30.294Z,98011.00
2018-12-15T03:03:59.492Z,98017.00
2018-12-15T03:06:28.716Z,98023.00
2018-12-15T03:08:58.000Z,98010.00
2018-12-15T03:11:27.204Z,98000.00
2018-12-15T03:13:56.474Z,98017.00
2018-12-15T03:16:25.818Z,98008.00
2018-12-15T03:18:56.199Z,98016.00
2018-12-15T03:21:25.526Z,98024.00
2018-12-15T03:23:54.708Z,98009.00
2018-12-15T03:26:23.896Z,98003.00
2018-12-15T03:28:53.102Z,98006.00
2018-12-15T03:31:22.426Z,98013.00
2018-12-15T03:33:51.598Z,98012.00
2018-12-15T03:36:22.151Z,98009.00
2018-12-15T03:38:51.324Z,98021.00
2018-12-15T03:41:20.536Z,98022.00
2018-12-15T03:43:49.706Z,98018.00
2018-12-15T03:46:18.899Z,98023.00
2018-12-15T03:48:48.084Z,98035.00
2018-12-15T03:51:17.285Z,98012.00
2018-12-15T03:53:46.457Z,98026.00
2018-12-15T03:56:15.723Z,98022.00
2018-12-15T03:58:44.903Z,98027.00
2018-12-15T04:01:14.115Z,98022.00
2018-12-15T04:03:43.306Z,98029.00
2018-12-15T04:06:12.627Z,98025.00
2018-12-15T04:08:41.826Z,98028.00
2018-12-15T04:11:11.116Z,98056.00
2018-12-15T04:13:40.402Z,98032.00
2018-12-15T04:16:09.696Z,98029.00
2018-12-15T04:18:38.859Z,98026.00
2018-12-15T04:21:08.039Z,98028.00
2018-12-15T04:23:37.292Z,98022.00
2018-12-15T04:26:06.483Z,98018.00
2018-12-15T04:28:35.680Z,98018.00
2018-12-15T04:31:04.907Z,98023.00
2018-12-15T04:33:34.182Z,98026.00
2018-12-15T04:36:15.519Z,98029.00
2018-12-15T04:38:44.964Z,98030.00
2018-12-15T04:41:14.162Z,98037.00
2018-12-15T04:43:43.334Z,98032.00
2018-12-15T04:46:13.202Z,98041.00
2018-12-15T04:48:42.503Z,98038.00
2018-12-15T04:51:11.720Z,98036.00
2018-12-15T04:53:40.893Z,98041.00
2018-12-15T04:56:10.097Z,98032.00
2018-12-15T04:58:39.263Z,98032.00
2018-12-15T05:01:08.474Z,98032.00
2018-12-15T05:03:38.148Z,98032.00
2018-12-15T05:06:07.388Z,98038.00
2018-12-15T05:08:36.671Z,98040.00
2018-12-15T05:11:05.887Z,98031.00
2018-12-15T05:13:35.076Z,98031.00
2018-12-15T05:16:04.274Z,98044.00
2018-12-15T05:18:33.474Z,98034.00
2018-12-15T05:21:02.656Z,98041.00
2018-12-15T05:23:31.866Z,98045.00
2018-12-15T05:26:01.067Z,98049.00
2018-12-15T05:28:30.255Z,98050.00
2018-12-15T05:30:59.431Z,98051.00
2018-12-15T05:33:28.663Z,98055.00
2018-12-15T05:35:57.851Z,98064.00
2018-12-15T05:38:27.048Z,98057.00
2018-12-15T05:40:56.239Z,98051.00
2018-12-15T05:43:25.423Z,98048.00
2018-12-15T05:45:55.019Z,98055.00
2018-12-15T05:48:25.554Z,98055.00
2018-12-15T05:50:55.949Z,98066.00
2018-12-15T05:53:25.209Z,98065.00
2018-12-15T05:55:54.392Z,98048.00
2018-12-15T05:58:23.574Z,98055.00
2018-12-15T06:00:52.771Z,98061.00
2018-12-15T06:03:22.000Z,98060.00
2018-12-15T06:05:51.170Z,98064.00
2018-12-15T06:08:20.378Z,98078.00
2018-12-15T06:10:49.550Z,98067.00
2018-12-15T06:13:18.772Z,98074.00
2018-12-15T06:15:47.939Z,98075.00
2018-12-15T06:18:17.184Z,98081.00
2018-12-15T06:20:46.358Z,98083.00
2018-12-15T06:23:15.583Z,98082.00
2018-12-15T06:25:44.749Z,98080.00
2018-12-15T06:28:13.964Z,98090.00
2018-12-15T06:30:43.139Z,98054.00
2018-12-15T06:33:12.351Z,98086.00
2018-12-15T06:35:41.638Z,98086.00
2018-12-15T06:38:10.822Z,98098.00
2018-12-15T06:40:40.022Z,98090.00
2018-12-15T06:43:09.246Z,98100.00
2018-12-15T06:45:38.410Z,98100.00
2018-12-15T06:48:07.643Z,98094.00
2018-12-15T06:50:36.814Z,98098.00
2018-12-15T06:53:06.030Z,98098.00
2018-12-15T06:55:35.218Z,98106.00
2018-12-15T06:58:04.534Z,98097.00
2018-12-15T07:00:33.717Z,98030.00
2018-12-15T07:03:02.930Z,98105.00
2018-12-15T07:05:32.102Z,98097.00
2018-12-15T07:08:01.368Z,98104.00
2018-12-15T07:10:30.607Z,98106.00
2018-12-15T07:12:59.818Z,98101.00
2018-12-15T07:15:29.010Z,98107.00
2018-12-15T07:17:58.224Z,98112.00
2018-12-15T07:20:27.502Z,98103.00
2018-12-15T07:22:56.706Z,98101.00
2018-12-15T07:25:25.875Z,98098.00
2018-12-15T07:27:55.108Z,98100.00
2018-12-15T07:30:24.276Z,98114.00
2018-12-15T07:32:53.590Z,98106.00
2018-12-15T07:35:22.774Z,98101.00
2018-12-15T07:37:51.981Z,98093.00
2018-12-15T07:40:21.143Z,98098.00
2018-12-15T07:42:50.395Z,98099.00
2018-12-15T07:45:19.575Z,98100.00
2018-12-15T07:47:48.879Z,98102.00
2018-12-15T07:50:18.075Z,98098.00
2018-12-15T07:52:47.279Z,98096.00
2018-12-15T07:55:16.466Z,98093.00
2018-12-15T07:57:45.674Z,98095.00
2018-12-15T08:00:18.130Z,98101.00
2018-12-15T08:02:47.346Z,98107.00
2018-12-15T08:05:16.540Z,98097.00
2018-12-15T08:07:46.044Z,98098.00
2018-12-15T08:10:19.338Z,98099.00
2018-12-15T08:12:52.674Z,98104.00
2018-12-15T08:15:21.957Z,98108.00
2018-12-15T08:17:51.238Z,98104.00
2018-12-15T08:20:20.527Z,98101.00
2018-12-15T08:22:49.723Z,98116.00
2018-12-15T08:25:18.923Z,98107.00
2018-12-15T08:27:48.144Z,98103.00
2018-12-15T08:30:17.407Z,98116.00
2018-12-15T08:32:46.676Z,98107.00
2018-12-15T08:35:15.845Z,98119.00
2018-12-15T08:37:45.026Z,98112.00
2018-12-15T08:40:14.365Z,98120.00
2018-12-15T08:42:43.576Z,98120.00
2018-12-15T08:45:12.818Z,98113.00
2018-12-15T08:47:41.983Z,98120.00
2018-12-15T08:50:11.322Z,98125.00
2018-12-15T08:52:40.816Z,98114.00
2018-12-15T08:55:09.746Z,98122.00
2018-12-15T08:57:39.011Z,98133.00
2018-12-15T09:00:08.453Z,98110.00
2018-12-15T09:02:37.683Z,98118.00
2018-12-15T09:05:07.088Z,98118.00
2018-12-15T09:07:36.291Z,98116.00
2018-12-15T09:10:05.750Z,98118.00
2018-12-15T09:12:34.993Z,98121.00
2018-12-15T09:15:04.730Z,98125.00
2018-12-15T09:17:33.901Z,98128.00
2018-12-15T09:20:03.125Z,98129.00
2018-12-15T09:22:32.449Z,98126.00
2018-12-15T09:25:01.687Z,98124.00
2018-12-15T09:27:30.899Z,98113.00
2018-12-15T09:30:00.126Z,98115.00
2018-12-15T09:32:29.391Z,98113.00
2018-12-15T09:34:58.642Z,98124.00
2018-12-15T09:37:27.920Z,98115.00
2018-12-15T09:39:57.162Z,98107.00
2018-12-15T09:42:26.378Z,98111.00
2018-12-15T09:44:55.599Z,98108.00
2018-12-15T09:47:24.771Z,98095.00
2018-12-15T09:49:54.017Z,98099.00
2018-12-15T09:52:23.327Z,98101.00
2018-12-15T09:54:52.607Z,98096.00
2018-12-15T09:57:21.773Z,98095.00
2018-12-15T09:59:50.979Z,98098.00
2018-12-15T10:02:20.302Z,98091.00
2018-12-15T10:04:49.695Z,98099.00
2018-12-15T10:07:18.866Z,98095.00
2018-12-15T10:09:48.084Z,98097.00
2018-12-15T10:12:17.266Z,98095.00
2018-12-15T10:14:46.594Z,98088.00
2018-12-15T10:17:15.842Z,98087.00
2018-12-15T10:19:45.094Z,98083.00
2018-12-15T10:22:14.328Z,98077.00
2018-12-15T10:24:43.570Z,98088.00
2018-12-15T10:27:12.743Z,98076.00
2018-12-15T10:29:47.530Z,98071.00
2018-12-15T10:32:22.187Z,98074.00
2018-12-15T10:34:51.382Z,98069.00
2018-12-15T10:37:20.700Z,98067.00
2018-12-15T10:39:49.919Z,98075.00
2018-12-15T10:42:19.113Z,98072.00
2018-12-15T10:44:48.295Z,98072.00
2018-12-15T10:47:17.459Z,98061.00
2018-12-15T10:49:47.334Z,98061.00
2018-12-15T10:52:16.500Z,98065.00
2018-12-15T10:54:45.699Z,98060.00
2018-12-15T10:57:14.877Z,98052.00
2018-12-15T10:59:44.058Z,98049.00
2018-12-15T11:02:13.323Z,98047.00
2018-12-15T11:04:42.603Z,98051.00
2018-12-15T11:07:11.855Z,98044.00
2018-12-15T11:09:41.039Z,98043.00
2018-12-15T11:12:10.269Z,98040.00
2018-12-15T11:14:39.495Z,98040.00
2018-12-15T11:17:08.698Z,98034.00
2018-12-15T11:19:37.878Z,98023.00
2018-12-15T11:22:07.047Z,98017.00
2018-12-15T11:24:36.317Z,98035.00
2018-12-15T11:27:05.555Z,98024.00
2018-12-15T11:29:34.782Z,98023.00
2018-12-15T11:32:04.063Z,98024.00
2018-12-15T11:34:33.290Z,98014.00
2018-12-15T11:37:02.462Z,98030.00
2018-12-15T11:39:31.679Z,98025.00
2018-12-15T11:42:00.841Z,98042.00
2018-12-15T11:44:30.088Z,98029.00
2018-12-15T11:47:02.743Z,97538.00
2018-12-15T11:49:31.931Z,98023.00
2018-12-15T11:52:01.108Z,98018.00
2018-12-15T11:54:30.286Z,98028.00
2018-12-15T11:56:59.439Z,98014.00
2018-12-15T11:59:28.630Z,98022.00
2018-12-15T12:01:59.020Z,98028.00
2018-12-15T12:04:28.226Z,98012.00
2018-12-15T12:06:57.549Z,98013.00
2018-12-15T12:09:26.742Z,98001.00
2018-12-15T12:11:55.942Z,98010.00
2018-12-15T12:14:25.119Z,98005.00
2018-12-15T12:16:54.326Z,98008.00
2018-12-15T12:19:23.523Z,98007.00
2018-12-15T12:21:52.684Z,98003.00
2018-12-15T12:24:21.958Z,98005.00
2018-12-15T12:26:51.174Z,98008.00
2018-12-15T12:29:20.342Z,98016.00
2018-12-15T12:31:49.534Z,98005.00
2018-12-15T12:34:18.739Z,98009.00
2018-12-15T12:36:47.916Z,97999.00
2018-12-15T12:39:17.103Z,98027.00
2018-12-15T12:41:46.302Z,98004.00
2018-12-15T12:44:15.621Z,98006.00
2018-12-15T12:46:44.891Z,98000.00
2018-12-15T12:49:14.066Z,98002.00
2018-12-15T12:51:43.253Z,98005.00
2018-12-15T12:54:12.486Z,97991.00
2018-12-15T12:56:41.700Z,97990.00
2018-12-15T12:59:10.905Z,97998.00
2018-12-15T13:01:40.118Z,97991.00
2018-12-15T13:04:09.289Z,97992.00
2018-12-15T13:06:38.467Z,97999.00
2018-12-15T13:09:08.371Z,97990.00
2018-12-15T13:11:37.570Z,97992.00
2018-12-15T13:14:06.963Z,97991.00
2018-12-15T13:16:36.231Z,97995.00
2018-12-15T13:19:05.535Z,97993.00
2018-12-15T13:21:34.862Z,98006.00
2018-12-15T13:24:04.117Z,98000.00
2018-12-15T13:26:33.397Z,97998.00
2018-12-15T13:29:02.550Z,98003.00
2018-12-15T13:31:32.035Z,97995.00
2018-12-15T13:34:01.384Z,97997.00
2018-12-15T13:39:17.826Z,97998.00
2018-12-15T13:41:47.205Z,97995.00
2018-12-15T13:44:16.358Z,97998.00
2018-12-15T13:46:45.717Z,98000.00
2018-12-15T13:49:14.994Z,98004.00
2018-12-15T13:51:44.284Z,97997.00
2018-12-15T13:54:13.496Z,97996.00
2018-12-15T13:56:42.699Z,98002.00
2018-12-15T13:59:11.853Z,98002.00
2018-12-15T14:01:41.115Z,97993.00
2018-12-15T14:04:10.331Z,97965.00
2018-12-15T14:06:39.618Z,98004.00
2018-12-15T14:09:09.506Z,97996.00
2018-12-15T14:11:38.783Z,98000.00
2018-12-15T14:14:08.075Z,98001.00
2018-12-15T14:16:37.371Z,98000.00
2018-12-15T14:19:06.706Z,97991.00
2018-12-15T14:21:35.946Z,97994.00
2018-12-15T14:24:05.258Z,97993.00
2018-12-15T14:26:34.528Z,97994.00
2018-12-15T14:29:03.803Z,97981.00
2018-12-15T14:31:33.126Z,97988.00
2018-12-15T14:34:02.288Z,97983.00
2018-12-15T14:36:31.510Z,97996.00
2018-12-15T14:39:00.787Z,97993.00
2018-12-15T14:41:30.021Z,97994.00
2018-12-15T14:43:59.188Z,97985.00
2018-12-15T14:46:28.406Z,97984.00
2018-12-15T14:48:57.702Z,98005.00
2018-12-15T14:51:26.895Z,97984.00
2018-12-15T14:53:56.082Z,97979.00
2018-12-15T14:56:25.302Z,97986.00
2018-12-15T14:58:54.486Z,97982.00
2018-12-15T15:01:23.674Z,97972.00
2018-12-15T15:03:52.975Z,97968.00
2018-12-15T15:06:22.185Z,97977.00
2018-12-15T15:08:51.354Z,97971.00
2018-12-15T15:11:20.573Z,97971.00
2018-12-15T15:13:49.851Z,97962.00
2018-12-15T15:16:19.038Z,97958.00
2018-12-15T15:18:48.283Z,97957.00
2018-12-15T15:21:17.642Z,97951.00
2018-12-15T15:23:46.860Z,97958.00
2018-12-15T15:26:16.077Z,97947.00
2018-12-15T15:28:45.446Z,97915.00
2018-12-15T15:31:14.667Z,97958.00
2018-12-15T15:33:43.826Z,97925.00
2018-12-15T15:36:13.010Z,97963.00
2018-12-15T15:38:42.176Z,97965.00
2018-12-15T15:41:11.359Z,97964.00
2018-12-15T15:43:40.570Z,97957.00
2018-12-15T15:46:09.743Z,97957.00
2018-12-15T15:48:39.112Z,97963.00
2018-12-15T15:51:08.299Z,97956.00
2018-12-15T15:53:37.555Z,97946.00
2018-12-15T15:56:06.947Z,97956.00
2018-12-15T15:58:36.135Z,97948.00
2018-12-15T16:01:05.667Z,97950.00
2018-12-15T16:03:35.038Z,97950.00
2018-12-15T16:06:04.242Z,97954.00
2018-12-15T16:08:33.536Z,97944.00
2018-12-15T16:11:02.706Z,97943.00
2018-12-15T16:13:31.923Z,97941.00
2018-12-15T16:16:01.200Z,97938.00
2018-12-15T16:18:30.440Z,97930.00
2018-12-15T16:20:59.600Z,97939.00
2018-12-15T16:23:28.828Z,97929.00
2018-12-15T16:25:58.003Z,97932.00
2018-12-15T16:28:27.330Z,97927.00
2018-12-15T16:30:56.606Z,97934.00
2018-12-15T16:33:25.826Z,97937.00
2018-12-15T16:35:55.019Z,97938.00
2018-12-15T16:38:24.222Z,97933.00
2018-12-15T16:40:53.430Z,97923.00
2018-12-15T16:43:22.619Z,97946.00
2018-12-15T16:45:51.785Z,97921.00
2018-12-15T16:48:20.968Z,97922.00
2018-12-15T16:50:50.390Z,97640.00
2018-12-15T16:53:19.647Z,97917.00
2018-12-15T16:55:48.937Z,97921.00
2018-12-15T16:58:18.214Z,97920.00
2018-12-15T17:00:47.481Z,97922.00
2018-12-15T17:03:16.701Z,97917.00
2018-12-15T17:05:46.137Z,97916.00
2018-12-15T17:08:15.498Z,97913.00
2018-12-15T17:10:45.144Z,97913.00
2018-12-15T17:13:14.515Z,97915.00
2018-12-15T17:15:43.895Z,97905.00
2018-12-15T17:18:13.432Z,97901.00
2018-12-15T17:20:44.102Z,97894.00
2018-12-15T17:23:13.358Z,97893.00
2018-12-15T17:25:42.782Z,97898.00
2018-12-15T17:28:12.448Z,97888.00
2018-12-15T17:30:42.058Z,97886.00
2018-12-15T17:33:12.456Z,97875.00
2018-12-15T17:35:42.914Z,97874.00
2018-12-15T17:38:12.576Z,97875.00
2018-12-15T17:40:42.114Z,97871.00
2018-12-15T17:43:11.343Z,97879.00
2018-12-15T17:45:41.817Z,97878.00
2018-12-15T17:48:11.143Z,97870.00
2018-12-15T17:50:40.318Z,97871.00
2018-12-15T17:53:09.766Z,97860.00
2018-12-15T17:55:39.197Z,97858.00
2018-12-15T17:58:14.533Z,97853.00
2018-12-15T18:00:39.803Z,97848.00
2018-12-15T18:03:08.986Z,97856.00
2018-12-15T18:06:06.370Z,97853.00
2018-12-15T18:09:00.140Z,97849.00
2018-12-15T18:11:44.701Z,97844.00
2018-12-15T18:14:22.839Z,97844.00
2018-12-15T18:17:08.936Z,97837.00
2018-12-15T18:19:38.214Z,97840.00
2018-12-15T18:22:07.387Z,97838.00
2018-12-15T18:24:36.602Z,97830.00
2018-12-15T18:27:05.941Z,97840.00
2018-12-15T18:29:35.299Z,97838.00
2018-12-15T18:32:04.662Z,97839.00
2018-12-15T18:34:34.197Z,97831.00
2018-12-15T18:37:03.372Z,97822.00
2018-12-15T18:39:32.597Z,97823.00
2018-12-15T18:42:01.886Z,97813.00
2018-12-15T18:44:31.066Z,97817.00
2018-12-15T18:47:00.278Z,97814.00
2018-12-15T18:49:30.464Z,97823.00
2018-12-15T18:51:59.720Z,97812.00
2018-12-15T18:54:29.244Z,97813.00
2018-12-15T18:56:58.952Z,97817.00
2018-12-15T18:59:28.623Z,97813.00
2018-12-15T19:01:57.832Z,97817.00
2018-12-15T19:04:27.222Z,97804.00
2018-12-15T19:06:56.479Z,97811.00
2018-12-15T19:09:25.658Z,97820.00
2018-12-15T19:11:54.898Z,97814.00
2018-12-15T19:14:24.263Z,97807.00
2018-12-15T19:16:53.470Z,97812.00
2018-12-15T19:19:22.818Z,97805.00
2018-12-15T19:21:51.983Z,97804.00
2018-12-15T19:24:21.323Z,97787.00
2018-12-15T19:26:51.028Z,97795.00
2018-12-15T19:29:20.222Z,97793.00
2018-12-15T19:31:49.508Z,97786.00
2018-12-15T19:34:18.700Z,97798.00
2018-12-15T19:36:48.078Z,97785.00
2018-12-15T19:39:17.328Z,97780.00
2018-12-15T19:41:46.491Z,97777.00
2018-12-15T19:44:15.704Z,97781.00
2018-12-15T19:46:45.106Z,97773.00
2018-12-15T19:49:14.307Z,97778.00
2018-12-15T19:51:43.500Z,97756.00
2018-12-15T19:54:12.751Z,97767.00
2018-12-15T19:56:42.106Z,97752.00
2018-12-15T19:59:14.651Z,97748.00
2018-12-15T20:01:44.502Z,97752.00
2018-12-15T20:04:13.770Z,97747.00
2018-12-15T20:06:43.045Z,97735.00
2018-12-15T20:09:12.372Z,97728.00
2018-12-15T20:11:41.547Z,97732.00
2018-12-15T20:14:10.755Z,97731.00
2018-12-15T20:16:39.934Z,97723.00
2018-12-15T20:19:09.179Z,97728.00
2018-12-15T20:21:38.466Z,97731.00
2018-12-15T20:24:07.687Z,97727.00
2018-12-15T20:26:36.863Z,97730.00
2018-12-15T20:29:06.085Z,97722.00
2018-12-15T20:31:35.258Z,97720.00
2018-12-15T20:34:04.494Z,97709.00
2018-12-15T20:36:33.650Z,97720.00
2018-12-15T20:39:03.625Z,97730.00
2018-12-15T20:41:32.787Z,97716.00
2018-12-15T20:44:01.950Z,97712.00
2018-12-15T20:46:31.150Z,97701.00
2018-12-15T20:49:00.516Z,97704.00
2018-12-15T20:51:29.746Z,97700.00
2018-12-15T20:53:58.918Z,97697.00
2018-12-15T20:56:28.351Z,97695.00
2018-12-15T20:58:57.536Z,97688.00
2018-12-15T21:01:26.990Z,97678.00
2018-12-15T21:03:56.187Z,97676.00
2018-12-15T21:06:25.351Z,97670.00
2018-12-15T21:08:54.569Z,97673.00
2018-12-15T21:11:24.316Z,97671.00
2018-12-15T21:13:53.728Z,97651.00
2018-12-15T21:16:23.075Z,97650.00
2018-12-15T21:18:52.295Z,97639.00
2018-12-15T21:21:21.474Z,97633.00
2018-12-15T21:23:50.666Z,97621.00
2018-12-15T21:26:19.958Z,97617.00
2018-12-15T21:28:49.277Z,97615.00
2018-12-15T21:31:18.460Z,97614.00
2018-12-15T21:33:47.662Z,97609.00
2018-12-15T21:36:16.951Z,97620.00
2018-12-15T21:38:46.170Z,97601.00
2018-12-15T21:41:15.450Z,97606.00
2018-12-15T21:43:44.764Z,97595.00
2018-12-15T21:46:13.961Z,97556.00
2018-12-15T21:48:43.163Z,97584.00
2018-12-15T21:51:12.574Z,97586.00
2018-12-15T21:53:41.841Z,97582.00
2018-12-15T21:56:11.026Z,97579.00
2018-12-15T21:58:40.198Z,97588.00
2018-12-15T22:01:09.667Z,97580.00
2018-12-15T22:03:39.069Z,97575.00
2018-12-15T22:06:08.370Z,97592.00
2018-12-15T22:08:37.640Z,97585.00
2018-12-15T22:11:06.850Z,97572.00
2018-12-15T22:13:36.142Z,97565.00
2018-12-15T22:16:05.443Z,97566.00
2018-12-15T22:18:34.636Z,97565.00
2018-12-15T22:21:03.956Z,97561.00
2018-12-15T22:23:33.138Z,97558.00
2018-12-15T22:26:02.346Z,97557.00
2018-12-15T22:28:31.528Z,97563.00
2018-12-15T22:31:00.757Z,97562.00
2018-12-15T22:33:30.019Z,97557.00
2018-12-15T22:35:59.236Z,97562.00
2018-12-15T22:38:28.433Z,97557.00
2018-12-15T22:40:57.762Z,97546.00
2018-12-15T22:43:26.955Z,97549.00
2018-12-15T22:45:56.238Z,97545.00
2018-12-15T22:48:25.423Z,97544.00
2018-12-15T22:50:54.647Z,97542.00
2018-12-15T22:53:23.891Z,97541.00
2018-12-15T22:55:53.342Z,97534.00
2018-12-15T22:58:22.515Z,97527.00
2018-12-15T23:00:57.594Z,97523.00
2018-12-15T23:03:26.845Z,97536.00
2018-12-15T23:05:56.050Z,97522.00
2018-12-15T23:08:25.243Z,97510.00
2018-12-15T23:10:54.555Z,97498.00
2018-12-15T23:13:23.827Z,97501.00
2018-12-15T23:15:53.018Z,97504.00
2018-12-15T23:18:22.219Z,97501.00
2018-12-15T23:20:51.511Z,97500.00
2018-12-15T23:23:20.929Z,97486.00
2018-12-15T23:25:50.155Z,97479.00
2018-12-15T23:28:19.418Z,97472.00
2018-12-15T23:30:48.615Z,97459.00
2018-12-15T23:33:17.842Z,97453.00
2018-12-15T23:35:47.140Z,97446.00
2018-12-15T23:38:16.310Z,97445.00
2018-12-15T23:40:45.506Z,97441.00
2018-12-15T23:43:14.707Z,97433.00
2018-12-15T23:45:43.939Z,97425.00
2018-12-15T23:48:13.103Z,97429.00
2018-12-15T23:50:42.314Z,97423.00
2018-12-15T23:53:11.506Z,97418.00
2018-12-15T23:55:40.707Z,97407.00
2018-12-15T23:58:09.866Z,97411.00
